createdAt,value
2018-09-14T00:01:19.170Z,99.90
2018-09-14T00:03:47.970Z,99.90
2018-09-14T00:06:16.659Z,99.90
2018-09-14T00:08:46.200Z,99.90
2018-09-14T00:11:15.327Z,99.90
2018-09-14T00:13:44.137Z,99.90
2018-09-14T00:16:15.373Z,99.90
2018-09-14T00:18:45.116Z,99.90
2018-09-14T00:21:14.692Z,99.90
2018-09-14T00:23:43.437Z,99.90
2018-09-14T00:26:13.528Z,99.90
2018-09-14T00:28:42.259Z,99.90
2018-09-14T00:31:11.554Z,99.90
2018-09-14T00:33:40.297Z,99.90
2018-09-14T00:36:09.011Z,99.90
2018-09-14T00:38:38.021Z,99.90
2018-09-14T00:41:07.852Z,99.90
2018-09-14T00:43:36.577Z,99.90
2018-09-14T00:46:05.406Z,99.90
2018-09-14T00:48:34.158Z,99.90
2018-09-14T00:51:02.932Z,99.90
2018-09-14T00:53:31.625Z,99.90
2018-09-14T00:56:00.381Z,99.90
2018-09-14T00:58:29.718Z,99.90
2018-09-14T01:00:58.392Z,99.90
2018-09-14T01:03:28.032Z,99.90
2018-09-14T01:05:56.902Z,99.90
2018-09-14T01:08:26.020Z,99.90
2018-09-14T01:10:55.083Z,99.90
2018-09-14T01:13:24.043Z,99.90
2018-09-14T01:15:52.807Z,99.90
2018-09-14T01:18:21.601Z,99.90
2018-09-14T01:20:50.341Z,99.90
2018-09-14T01:23:19.044Z,99.90
2018-09-14T01:25:48.338Z,99.90
2018-09-14T01:28:17.091Z,99.90
2018-09-14T01:30:45.856Z,99.90
2018-09-14T01:33:14.707Z,99.90
2018-09-14T01:35:48.487Z,99.90
2018-09-14T01:38:17.199Z,99.90
2018-09-14T01:40:46.000Z,99.90
2018-09-14T01:43:14.687Z,99.90
2018-09-14T01:45:43.437Z,99.90
2018-09-14T01:48:13.013Z,99.90
2018-09-14T01:50:41.708Z,99.90
2018-09-14T01:53:10.404Z,99.90
2018-09-14T01:55:39.150Z,99.90
2018-09-14T01:58:07.834Z,99.90
2018-09-14T02:00:36.709Z,99.90
2018-09-14T02:03:06.083Z,99.90
2018-09-14T02:05:36.790Z,99.90
2018-09-14T02:08:05.852Z,99.90
2018-09-14T02:10:34.582Z,99.90
2018-09-14T02:13:04.195Z,99.90
2018-09-14T02:15:33.019Z,99.90
2018-09-14T02:18:02.415Z,99.90
2018-09-14T02:20:31.356Z,99.90
2018-09-14T02:23:00.062Z,99.90
2018-09-14T02:25:28.918Z,99.90
2018-09-14T02:27:57.978Z,99.90
2018-09-14T02:30:26.667Z,99.90
2018-09-14T02:32:55.373Z,99.90
2018-09-14T02:35:24.354Z,99.90
2018-09-14T02:37:53.066Z,99.90
2018-09-14T02:40:21.753Z,99.90
2018-09-14T02:42:50.561Z,99.90
2018-09-14T02:45:19.254Z,99.90
2018-09-14T02:47:48.232Z,99.90
2018-09-14T02:50:17.739Z,99.90
2018-09-14T02:52:46.435Z,99.90
2018-09-14T02:55:15.263Z,99.90
2018-09-14T02:57:47.352Z,99.90
2018-09-14T03:00:16.336Z,99.90
2018-09-14T03:02:45.894Z,99.90
2018-09-14T03:05:14.628Z,99.90
2018-09-14T03:07:43.341Z,99.90
2018-09-14T03:10:12.101Z,99.90
2018-09-14T03:12:40.885Z,99.90
2018-09-14T03:15:09.624Z,99.90
2018-09-14T03:17:38.345Z,99.90
2018-09-14T03:20:07.171Z,99.90
2018-09-14T03:22:35.916Z,99.90
2018-09-14T03:25:04.712Z,99.90
2018-09-14T03:27:34.298Z,99.90
2018-09-14T03:30:04.112Z,99.90
2018-09-14T03:32:34.139Z,99.90
2018-09-14T03:35:03.849Z,99.90
2018-09-14T03:37:32.727Z,99.90
2018-09-14T03:40:01.481Z,99.90
2018-09-14T03:42:30.262Z,99.90
2018-09-14T03:44:59.075Z,99.90
2018-09-14T03:47:28.115Z,99.90
2018-09-14T03:49:56.815Z,99.90
2018-09-14T03:52:25.584Z,99.90
2018-09-14T03:54:54.905Z,99.90
2018-09-14T03:57:23.671Z,99.90
2018-09-14T03:59:52.383Z,99.90
2018-09-14T04:02:21.253Z,99.90
2018-09-14T04:04:49.951Z,99.90
2018-09-14T04:07:18.642Z,99.90
2018-09-14T04:09:48.150Z,99.90
2018-09-14T04:12:17.368Z,99.90
2018-09-14T04:14:46.068Z,99.90
2018-09-14T04:17:15.727Z,99.90
2018-09-14T04:19:45.848Z,99.90
2018-09-14T04:22:14.614Z,99.90
2018-09-14T04:24:44.652Z,99.90
2018-09-14T04:27:13.883Z,99.90
2018-09-14T04:29:42.646Z,99.90
2018-09-14T04:32:11.408Z,99.90
2018-09-14T04:34:40.145Z,99.90
2018-09-14T04:37:08.912Z,99.90
2018-09-14T04:39:37.669Z,99.90
2018-09-14T04:42:06.396Z,99.90
2018-09-14T04:44:35.200Z,99.90
2018-09-14T04:47:05.760Z,99.90
2018-09-14T04:49:34.481Z,99.90
2018-09-14T04:52:03.657Z,99.90
2018-09-14T04:54:32.376Z,99.90
2018-09-14T04:57:01.086Z,99.90
2018-09-14T04:59:29.876Z,99.90
2018-09-14T05:01:58.660Z,99.90
2018-09-14T05:04:27.336Z,99.90
2018-09-14T05:06:56.056Z,99.90
2018-09-14T05:09:25.887Z,99.90
2018-09-14T05:11:54.696Z,99.90
2018-09-14T05:14:24.132Z,99.90
2018-09-14T05:16:52.823Z,99.90
2018-09-14T05:19:21.816Z,99.90
2018-09-14T05:21:50.678Z,99.90
2018-09-14T05:24:20.329Z,99.90
2018-09-14T05:26:49.709Z,99.90
2018-09-14T05:29:19.100Z,99.90
2018-09-14T05:31:49.188Z,99.90
2018-09-14T05:34:18.207Z,99.90
2018-09-14T05:36:47.723Z,99.90
2018-09-14T05:39:19.223Z,99.90
2018-09-14T05:41:49.314Z,99.90
2018-09-14T05:44:18.815Z,99.90
2018-09-14T05:46:48.555Z,99.90
2018-09-14T05:49:17.401Z,99.90
2018-09-14T05:51:49.389Z,99.90
2018-09-14T05:54:18.134Z,99.90
2018-09-14T05:56:48.675Z,99.90
2018-09-14T05:59:17.989Z,99.90
2018-09-14T06:01:48.131Z,99.90
2018-09-14T06:04:19.843Z,99.90
2018-09-14T06:06:48.657Z,99.90
2018-09-14T06:09:18.755Z,99.90
2018-09-14T06:11:48.389Z,99.90
2018-09-14T06:14:19.204Z,99.90
2018-09-14T06:16:47.948Z,99.90
2018-09-14T06:19:17.865Z,99.90
2018-09-14T06:21:49.369Z,99.90
2018-09-14T06:24:19.069Z,99.90
2018-09-14T06:26:48.520Z,99.90
2018-09-14T06:29:17.669Z,99.90
2018-09-14T06:31:46.400Z,99.90
2018-09-14T06:34:15.295Z,99.90
2018-09-14T06:36:44.441Z,99.90
2018-09-14T06:39:13.400Z,99.90
2018-09-14T06:41:43.056Z,99.90
2018-09-14T06:44:11.819Z,99.90
2018-09-14T06:46:40.606Z,99.90
2018-09-14T06:49:11.556Z,99.90
2018-09-14T06:51:40.289Z,99.90
2018-09-14T06:54:09.555Z,99.90
2018-09-14T06:56:39.193Z,99.90
2018-09-14T06:59:08.414Z,99.90
2018-09-14T07:01:39.329Z,99.90
2018-09-14T07:04:08.287Z,99.90
2018-09-14T07:06:37.561Z,99.90
2018-09-14T07:09:08.502Z,99.90
2018-09-14T07:11:38.240Z,99.90
2018-09-14T07:14:07.018Z,99.90
2018-09-14T07:16:35.799Z,99.90
2018-09-14T07:19:04.662Z,99.90
2018-09-14T07:21:33.811Z,99.90
2018-09-14T07:24:02.549Z,99.90
2018-09-14T07:26:31.454Z,99.90
2018-09-14T07:29:00.218Z,99.90
2018-09-14T07:31:29.751Z,99.90
2018-09-14T07:33:59.842Z,99.90
2018-09-14T07:36:32.231Z,99.90
2018-09-14T07:39:02.062Z,99.90
2018-09-14T07:41:31.006Z,99.90
2018-09-14T07:44:00.246Z,99.90
2018-09-14T07:46:29.713Z,99.90
2018-09-14T07:48:59.250Z,99.90
2018-09-14T07:51:31.619Z,99.90
2018-09-14T07:54:04.250Z,99.90
2018-09-14T07:56:33.198Z,99.90
2018-09-14T07:59:06.860Z,99.90
2018-09-14T08:01:36.068Z,99.90
2018-09-14T08:04:04.817Z,99.90
2018-09-14T08:06:33.528Z,99.90
2018-09-14T08:09:04.797Z,99.90
2018-09-14T08:11:38.262Z,99.90
2018-09-14T08:14:09.893Z,99.90
2018-09-14T08:16:45.018Z,99.90
2018-09-14T08:19:13.961Z,99.90
2018-09-14T08:21:44.287Z,99.90
2018-09-14T08:24:13.294Z,99.90
2018-09-14T08:26:47.216Z,99.90
2018-09-14T08:29:16.001Z,99.90
2018-09-14T08:31:47.683Z,99.90
2018-09-14T08:34:17.112Z,99.90
2018-09-14T08:36:47.468Z,99.90
2018-09-14T08:39:18.372Z,99.90
2018-09-14T08:41:49.668Z,99.90
2018-09-14T08:44:18.474Z,99.90
2018-09-14T08:46:48.613Z,99.90
2018-09-14T08:49:20.203Z,99.90
2018-09-14T08:51:53.938Z,99.90
2018-09-14T08:54:24.234Z,99.90
2018-09-14T08:56:53.051Z,99.90
2018-09-14T08:59:24.264Z,99.90
2018-09-14T09:01:53.087Z,99.90
2018-09-14T09:04:23.089Z,99.90
2018-09-14T09:06:55.013Z,99.90
2018-09-14T09:09:25.081Z,99.90
2018-09-14T09:11:57.575Z,99.90
2018-09-14T09:14:26.348Z,99.90
2018-09-14T09:16:55.331Z,99.90
2018-09-14T09:19:29.242Z,99.90
2018-09-14T09:21:58.347Z,99.90
2018-09-14T09:24:28.552Z,99.90
2018-09-14T09:26:58.652Z,99.90
2018-09-14T09:29:27.421Z,99.90
2018-09-14T09:31:58.405Z,99.90
2018-09-14T09:34:27.329Z,99.90
2018-09-14T09:36:58.822Z,99.90
2018-09-14T09:39:27.793Z,99.90
2018-09-14T09:41:56.723Z,99.90
2018-09-14T09:44:27.320Z,99.90
2018-09-14T09:46:57.502Z,99.90
2018-09-14T09:49:26.980Z,99.90
2018-09-14T09:51:55.942Z,99.90
2018-09-14T09:54:24.757Z,99.90
2018-09-14T09:56:57.854Z,99.90
2018-09-14T09:59:26.736Z,99.90
2018-09-14T10:02:01.201Z,99.90
2018-09-14T10:04:36.055Z,99.90
2018-09-14T10:07:05.298Z,99.90
2018-09-14T10:09:34.742Z,99.90
2018-09-14T10:12:03.927Z,99.90
2018-09-14T10:14:33.981Z,99.90
2018-09-14T10:17:10.444Z,99.90
2018-09-14T10:19:39.933Z,99.90
2018-09-14T10:22:10.757Z,99.90
2018-09-14T10:24:39.573Z,99.90
2018-09-14T10:27:09.241Z,99.90
2018-09-14T10:29:39.719Z,99.90
2018-09-14T10:32:08.512Z,99.90
2018-09-14T10:34:38.288Z,98.00
2018-09-14T10:37:08.083Z,98.70
2018-09-14T10:39:38.916Z,96.00
2018-09-14T10:42:07.754Z,93.80
2018-09-14T10:44:37.393Z,93.90
2018-09-14T10:47:12.395Z,92.80
2018-09-14T10:49:42.806Z,91.90
2018-09-14T10:54:55.699Z,86.80
2018-09-14T10:57:25.254Z,90.20
2018-09-14T10:59:54.320Z,91.30
2018-09-14T11:02:24.281Z,91.40
2018-09-14T11:04:54.184Z,92.00
2018-09-14T11:07:27.466Z,92.70
2018-09-14T11:10:00.304Z,94.20
2018-09-14T11:12:30.004Z,95.40
2018-09-14T11:14:59.056Z,95.10
2018-09-14T11:17:28.080Z,94.10
2018-09-14T11:22:35.024Z,97.10
2018-09-14T11:25:04.275Z,98.10
2018-09-14T11:27:50.603Z,99.90
2018-09-14T11:30:20.420Z,99.60
2018-09-14T11:33:02.410Z,98.70
2018-09-14T11:35:32.440Z,98.30
2018-09-14T11:38:01.301Z,99.90
2018-09-14T11:40:30.649Z,99.90
2018-09-14T11:43:01.617Z,99.90
2018-09-14T11:45:31.300Z,99.90
2018-09-14T11:48:00.254Z,99.90
2018-09-14T11:50:29.644Z,99.90
2018-09-14T11:53:00.265Z,99.90
2018-09-14T11:55:29.529Z,99.90
2018-09-14T11:57:59.885Z,99.90
2018-09-14T12:00:31.009Z,99.90
2018-09-14T12:03:00.463Z,99.90
2018-09-14T12:05:33.632Z,99.90
2018-09-14T12:08:03.505Z,98.90
2018-09-14T12:10:37.386Z,98.00
2018-09-14T12:13:08.660Z,96.80
2018-09-14T12:15:38.393Z,96.20
2018-09-14T12:18:09.332Z,95.70
2018-09-14T12:20:40.076Z,94.20
2018-09-14T12:23:09.045Z,93.70
2018-09-14T12:25:40.652Z,94.00
2018-09-14T12:28:13.419Z,93.00
2018-09-14T12:30:42.957Z,93.90
2018-09-14T12:33:11.806Z,93.50
2018-09-14T12:35:41.360Z,93.00
2018-09-14T12:38:12.292Z,93.10
2018-09-14T12:40:41.167Z,92.00
2018-09-14T12:44:30.122Z,93.40
2018-09-14T12:47:00.410Z,93.00
2018-09-14T12:49:33.062Z,93.00
2018-09-14T12:52:01.987Z,92.30
2018-09-14T12:54:32.164Z,93.20
2018-09-14T12:57:06.357Z,93.60
2018-09-14T12:59:36.744Z,94.30
2018-09-14T13:02:10.958Z,94.60
2018-09-14T13:04:40.734Z,93.30
2018-09-14T13:07:12.355Z,94.40
2018-09-14T13:09:42.455Z,93.00
2018-09-14T13:12:13.186Z,94.40
2018-09-14T13:14:42.173Z,94.30
2018-09-14T13:17:13.606Z,94.50
2018-09-14T13:19:43.273Z,93.20
2018-09-14T13:22:12.847Z,93.40
2018-09-14T13:24:41.644Z,92.70
2018-09-14T13:27:11.196Z,91.30
2018-09-14T13:29:39.936Z,91.70
2018-09-14T13:32:11.203Z,90.40
2018-09-14T13:34:40.832Z,91.80
2018-09-14T13:37:09.605Z,91.00
2018-09-14T13:39:40.106Z,91.20
2018-09-14T13:42:09.296Z,91.20
2018-09-14T13:44:38.601Z,91.40
2018-09-14T13:47:10.230Z,91.80
2018-09-14T13:49:39.492Z,92.30
2018-09-14T13:52:08.495Z,92.20
2018-09-14T13:54:37.368Z,92.70
2018-09-14T13:57:06.845Z,93.10
2018-09-14T13:59:36.309Z,93.20
2018-09-14T14:02:08.468Z,93.80
2018-09-14T14:04:38.048Z,92.50
2018-09-14T14:07:09.582Z,94.10
2018-09-14T14:09:40.356Z,93.50
2018-09-14T14:12:09.217Z,93.40
2018-09-14T14:14:38.205Z,93.70
2018-09-14T14:17:07.352Z,93.70
2018-09-14T14:19:36.434Z,94.50
2018-09-14T14:22:06.549Z,93.10
2018-09-14T14:24:36.133Z,94.00
2018-09-14T14:27:06.586Z,94.40
2018-09-14T14:29:37.463Z,94.60
2018-09-14T14:32:06.580Z,94.50
2018-09-14T14:34:35.458Z,94.50
2018-09-14T14:37:04.969Z,94.50
2018-09-14T14:39:34.788Z,94.60
2018-09-14T14:42:04.076Z,94.30
2018-09-14T14:44:37.816Z,95.00
2018-09-14T14:51:39.658Z,95.10
2018-09-14T14:54:10.046Z,95.50
2018-09-14T14:56:42.607Z,95.40
2018-09-14T14:59:15.256Z,95.30
2018-09-14T15:01:47.122Z,95.50
2018-09-14T15:04:27.493Z,95.30
2018-09-14T15:06:57.269Z,95.20
2018-09-14T15:09:27.308Z,95.40
2018-09-14T15:11:59.618Z,95.60
2018-09-14T15:14:29.533Z,95.70
2018-09-14T15:16:59.793Z,95.40
2018-09-14T15:19:33.579Z,95.40
2018-09-14T15:22:02.525Z,95.70
2018-09-14T15:24:33.600Z,96.10
2018-09-14T15:27:04.467Z,95.90
2018-09-14T15:29:37.324Z,95.60
2018-09-14T15:32:06.332Z,95.80
2018-09-14T15:34:37.338Z,95.90
2018-09-14T15:37:06.647Z,95.70
2018-09-14T15:39:35.376Z,95.20
2018-09-14T15:42:05.900Z,95.70
2018-09-14T15:44:37.209Z,95.70
2018-09-14T15:47:07.743Z,95.30
2018-09-14T15:49:39.584Z,96.00
2018-09-14T15:52:10.615Z,96.00
2018-09-14T15:54:40.188Z,95.80
2018-09-14T15:57:12.348Z,96.70
2018-09-14T15:59:41.264Z,96.30
2018-09-14T16:02:10.335Z,95.20
2018-09-14T16:04:40.558Z,95.90
2018-09-14T16:07:10.376Z,96.20
2018-09-14T16:09:39.946Z,97.10
2018-09-14T16:12:09.073Z,97.30
2018-09-14T16:14:38.188Z,96.80
2018-09-14T16:17:07.604Z,97.10
2018-09-14T16:19:37.269Z,96.90
2018-09-14T16:22:06.599Z,96.80
2018-09-14T16:24:35.921Z,97.10
2018-09-14T16:27:05.481Z,97.30
2018-09-14T16:29:35.209Z,97.30
2018-09-14T16:32:04.111Z,97.40
2018-09-14T16:34:33.411Z,97.70
2018-09-14T16:37:04.173Z,97.70
2018-09-14T16:39:36.517Z,97.60
2018-09-14T16:42:07.700Z,98.40
2018-09-14T16:44:37.489Z,98.50
2018-09-14T16:47:09.575Z,98.90
2018-09-14T16:49:48.078Z,98.90
2018-09-14T16:52:17.205Z,99.40
2018-09-14T16:54:46.686Z,99.70
2018-09-14T16:57:16.492Z,99.90
2018-09-14T16:59:46.203Z,99.90
2018-09-14T17:02:15.739Z,99.90
2018-09-14T17:04:46.487Z,99.90
2018-09-14T17:07:16.400Z,99.90
2018-09-14T17:09:45.241Z,99.90
2018-09-14T17:12:14.345Z,99.90
2018-09-14T17:14:43.818Z,99.90
2018-09-14T17:17:12.535Z,99.90
2018-09-14T17:19:53.101Z,99.90
2018-09-14T17:22:22.449Z,99.90
2018-09-14T17:24:55.751Z,99.90
2018-09-14T17:27:26.333Z,99.90
2018-09-14T17:29:56.351Z,99.90
2018-09-14T17:32:25.369Z,99.90
2018-09-14T17:34:54.502Z,99.90
2018-09-14T17:37:24.129Z,99.90
2018-09-14T17:39:54.194Z,99.90
2018-09-14T17:42:24.474Z,99.90
2018-09-14T17:44:53.255Z,99.90
2018-09-14T17:47:23.385Z,99.90
2018-09-14T17:49:54.462Z,99.90
2018-09-14T17:52:23.268Z,99.90
2018-09-14T17:54:52.754Z,99.90
2018-09-14T17:57:24.522Z,99.90
2018-09-14T17:59:54.341Z,99.90
2018-09-14T18:02:23.296Z,99.90
2018-09-14T18:04:52.312Z,99.90
2018-09-14T18:07:34.015Z,99.90
2018-09-14T18:10:02.907Z,99.90
2018-09-14T18:12:35.074Z,99.90
2018-09-14T18:15:05.692Z,99.90
2018-09-14T18:17:36.544Z,99.90
2018-09-14T18:20:08.304Z,99.90
2018-09-14T18:22:53.451Z,99.90
2018-09-14T18:25:29.909Z,99.90
2018-09-14T18:28:00.038Z,99.90
2018-09-14T18:30:34.891Z,99.90
2018-09-14T18:33:05.295Z,99.90
2018-09-14T18:35:35.003Z,99.90
2018-09-14T18:38:05.576Z,99.90
2018-09-14T18:40:39.847Z,99.90
2018-09-14T18:45:52.791Z,99.90
2018-09-14T18:48:25.315Z,99.90
2018-09-14T18:50:55.350Z,99.90
2018-09-14T18:53:26.650Z,99.90
2018-09-14T18:56:00.791Z,99.90
2018-09-14T18:58:31.264Z,99.90
2018-09-14T19:01:04.701Z,99.90
2018-09-14T19:03:36.423Z,99.90
2018-09-14T19:06:12.176Z,99.90
2018-09-14T19:08:46.238Z,99.90
2018-09-14T19:11:19.292Z,99.90
2018-09-14T19:13:48.924Z,99.90
2018-09-14T19:16:19.870Z,99.90
2018-09-14T19:18:55.429Z,99.90
2018-09-14T19:21:26.063Z,99.90
2018-09-14T19:23:58.641Z,99.90
2018-09-14T19:26:35.257Z,99.90
2018-09-14T19:29:05.328Z,99.90
2018-09-14T19:31:39.417Z,99.90
2018-09-14T19:34:14.123Z,99.90
2018-09-14T19:36:49.540Z,99.90
2018-09-14T19:39:22.410Z,99.90
2018-09-14T19:41:54.144Z,99.90
2018-09-14T19:44:26.852Z,99.90
2018-09-14T19:46:56.949Z,99.90
2018-09-14T19:49:29.246Z,99.90
2018-09-14T19:51:58.317Z,99.90
2018-09-14T19:54:34.330Z,99.90
2018-09-14T19:57:11.490Z,99.90
2018-09-14T20:00:03.387Z,99.90
2018-09-14T20:02:38.016Z,99.90
2018-09-14T20:05:10.552Z,99.90
2018-09-14T20:07:46.174Z,99.90
2018-09-14T20:10:29.214Z,99.90
2018-09-14T20:13:00.045Z,99.90
2018-09-14T20:15:36.157Z,99.90
2018-09-14T20:18:11.008Z,99.90
2018-09-14T20:20:41.266Z,99.90
2018-09-14T20:28:43.462Z,99.90
2018-09-14T20:31:13.560Z,99.90
2018-09-14T20:33:43.752Z,99.90
2018-09-14T20:36:15.353Z,99.90
2018-09-14T20:38:51.792Z,99.90
2018-09-14T20:41:21.082Z,99.90
2018-09-14T20:43:53.336Z,99.90
2018-09-14T20:46:23.067Z,99.90
2018-09-14T20:53:57.748Z,99.90
2018-09-14T20:56:31.389Z,99.90
2018-09-14T20:59:09.064Z,99.90
2018-09-14T21:01:40.184Z,99.90
2018-09-14T21:04:15.476Z,99.90
2018-09-14T21:06:48.441Z,99.90
2018-09-14T21:09:22.043Z,99.90
2018-09-14T21:11:51.389Z,99.90
2018-09-14T21:14:20.950Z,99.90
2018-09-14T21:16:49.802Z,99.90
2018-09-14T21:19:19.175Z,99.90
2018-09-14T21:21:49.923Z,99.90
2018-09-14T21:24:19.489Z,99.90
2018-09-14T21:26:48.255Z,99.90
2018-09-14T21:29:23.156Z,99.90
2018-09-14T21:31:58.760Z,99.90
2018-09-14T21:34:38.242Z,99.90
2018-09-14T21:37:10.369Z,99.90
2018-09-14T21:44:47.898Z,99.90
2018-09-14T21:47:22.408Z,99.90
2018-09-14T21:49:52.289Z,99.90
2018-09-14T21:52:28.636Z,99.90
2018-09-14T21:55:03.326Z,99.90
2018-09-14T21:57:32.734Z,99.90
2018-09-14T22:00:08.347Z,99.90
2018-09-14T22:02:39.785Z,99.90
2018-09-14T22:05:08.989Z,99.90
2018-09-14T22:07:37.842Z,99.90
2018-09-14T22:10:09.616Z,99.90
2018-09-14T22:12:41.644Z,99.90
2018-09-14T22:15:13.613Z,99.90
2018-09-14T22:17:43.919Z,99.90
2018-09-14T22:20:13.820Z,99.90
2018-09-14T22:22:43.665Z,99.90
2018-09-14T22:27:48.547Z,99.90
2018-09-14T22:30:18.741Z,99.90
2018-09-14T22:32:47.812Z,99.90
2018-09-14T22:35:18.307Z,99.90
2018-09-14T22:37:48.162Z,99.90
2018-09-14T22:40:18.396Z,99.90
2018-09-14T22:42:47.857Z,99.90
2018-09-14T22:45:17.226Z,99.90
2018-09-14T22:47:46.606Z,99.90
2018-09-14T22:50:15.319Z,99.90
2018-09-14T22:52:44.280Z,99.90
2018-09-14T22:55:13.748Z,99.90
2018-09-14T22:57:42.812Z,99.90
2018-09-14T23:00:16.326Z,99.90
2018-09-14T23:02:45.076Z,99.90
2018-09-14T23:05:15.186Z,99.90
2018-09-14T23:07:44.101Z,99.90
2018-09-14T23:10:15.042Z,99.90
2018-09-14T23:12:44.442Z,99.90
2018-09-14T23:15:16.912Z,99.90
2018-09-14T23:17:46.066Z,99.90
2018-09-14T23:20:18.291Z,99.90
2018-09-14T23:22:47.733Z,99.90
2018-09-14T23:25:17.486Z,99.90
2018-09-14T23:27:48.165Z,99.90
2018-09-14T23:30:18.443Z,99.90
2018-09-14T23:32:48.393Z,99.90
2018-09-14T23:35:17.380Z,99.90
2018-09-14T23:37:48.196Z,99.90
2018-09-14T23:40:17.267Z,99.90
2018-09-14T23:42:46.392Z,99.90
2018-09-14T23:45:21.944Z,99.90
2018-09-14T23:47:51.655Z,99.90
2018-09-14T23:50:20.693Z,99.90
2018-09-14T23:52:50.157Z,99.90
2018-09-14T23:55:19.926Z,99.90
2018-09-14T23:57:49.067Z,99.90
